createdAt,value
2019-05-07T00:00:03.698Z,101.7
2019-05-07T00:01:03.178Z,100.1
2019-05-07T00:02:03.467Z,98.9
2019-05-07T00:03:03.605Z,99.8
2019-05-07T00:04:03.095Z,97.7
2019-05-07T00:05:03.322Z,98.7
2019-05-07T00:06:03.187Z,98
2019-05-07T00:07:02.908Z,98.4
2019-05-07T00:08:03.711Z,97.7
2019-05-07T00:09:03.439Z,97.3
2019-05-07T00:10:03.675Z,97.7
2019-05-07T00:11:03.355Z,95.2
2019-05-07T00:12:05.497Z,96.1
2019-05-07T00:13:02.785Z,96.8
2019-05-07T00:14:03.556Z,96.6
2019-05-07T00:15:05.015Z,96.8
2019-05-07T00:16:03.846Z,95.6
2019-05-07T00:17:04.870Z,94.9
2019-05-07T00:18:03.890Z,94
2019-05-07T00:19:03.499Z,94.5
2019-05-07T00:20:03.680Z,95.4
2019-05-07T00:21:03.810Z,94
2019-05-07T00:22:03.596Z,93.5
2019-05-07T00:23:03.420Z,94.2
2019-05-07T00:24:03.533Z,94.5
2019-05-07T00:25:03.419Z,96.6
2019-05-07T00:26:03.802Z,94
2019-05-07T00:27:03.218Z,96.3
2019-05-07T00:28:03.623Z,96.8
2019-05-07T00:29:03.288Z,97
2019-05-07T00:30:03.342Z,97
2019-05-07T00:31:03.246Z,94.7
2019-05-07T00:32:03.321Z,96.1
2019-05-07T00:33:03.205Z,96.1
2019-05-07T00:34:03.082Z,96.3
2019-05-07T00:35:02.952Z,94.9
2019-05-07T00:36:03.106Z,96.3
2019-05-07T00:37:02.831Z,95.9
2019-05-07T00:38:02.796Z,97.3
2019-05-07T00:39:03.175Z,96.3
2019-05-07T00:40:03.227Z,96.1
2019-05-07T00:41:03.283Z,96.6
2019-05-07T00:42:03.345Z,95.6
2019-05-07T00:43:03.450Z,94.9
2019-05-07T00:44:03.483Z,93.8
2019-05-07T00:45:24.053Z,94.2
2019-05-07T00:47:02.674Z,93.5
2019-05-07T00:48:03.209Z,94.2
2019-05-07T00:49:03.853Z,91.9
2019-05-07T00:50:03.610Z,94
2019-05-07T00:51:03.477Z,93.3
2019-05-07T00:52:03.737Z,93.1
2019-05-07T00:53:03.127Z,91.2
2019-05-07T00:54:03.630Z,92.1
2019-05-07T00:55:03.446Z,91.7
2019-05-07T00:56:03.349Z,93.1
2019-05-07T00:57:03.433Z,92.8
2019-05-07T00:58:03.171Z,94.7
2019-05-07T00:59:03.465Z,93.8
2019-05-07T01:00:03.456Z,95.4
2019-05-07T01:01:03.341Z,93.5
2019-05-07T01:02:02.900Z,94
2019-05-07T01:03:03.787Z,94.2
2019-05-07T01:04:03.263Z,92.1
2019-05-07T01:05:03.451Z,93.5
2019-05-07T01:06:03.107Z,93.1
2019-05-07T01:07:03.152Z,94
2019-05-07T01:08:03.084Z,92.8
2019-05-07T01:09:03.548Z,93.8
2019-05-07T01:10:03.063Z,93.1
2019-05-07T01:11:03.112Z,93.1
2019-05-07T01:12:03.455Z,91.9
2019-05-07T01:13:03.053Z,93.1
2019-05-07T01:14:03.280Z,91.4
2019-05-07T01:15:03.954Z,91.7
2019-05-07T01:16:02.885Z,92.1
2019-05-07T01:17:03.785Z,90
2019-05-07T01:18:03.821Z,90.5
2019-05-07T01:19:03.675Z,90.5
2019-05-07T01:20:03.696Z,90.5
2019-05-07T01:21:03.845Z,89.3
2019-05-07T01:22:03.501Z,89.6
2019-05-07T01:23:03.809Z,90.7
2019-05-07T01:24:03.674Z,90.7
2019-05-07T01:25:03.633Z,90.7
2019-05-07T01:26:03.430Z,88.6
2019-05-07T01:27:03.597Z,89.8
2019-05-07T01:28:03.249Z,89.3
2019-05-07T01:29:03.724Z,90.7
2019-05-07T01:30:03.512Z,90.7
2019-05-07T01:31:03.746Z,91.4
2019-05-07T01:32:03.562Z,90
2019-05-07T01:33:03.556Z,90
2019-05-07T01:34:03.619Z,91
2019-05-07T01:35:03.422Z,89.3
2019-05-07T01:36:03.611Z,90.5
2019-05-07T01:37:03.317Z,90.3
2019-05-07T01:38:03.531Z,92.6
2019-05-07T01:39:03.225Z,89.6
2019-05-07T01:40:03.528Z,90.7
2019-05-07T01:41:03.578Z,90.5
2019-05-07T01:42:03.509Z,91.7
2019-05-07T01:43:03.063Z,91.2
2019-05-07T01:44:03.315Z,90.5
2019-05-07T01:45:03.235Z,91.9
2019-05-07T01:46:03.527Z,91.4
2019-05-07T01:47:03.350Z,91.2
2019-05-07T01:48:04.636Z,92.4
2019-05-07T01:49:03.332Z,90.3
2019-05-07T01:50:03.435Z,90.7
2019-05-07T01:51:03.741Z,90.7
2019-05-07T01:52:02.875Z,91.2
2019-05-07T01:53:04.147Z,93.3
2019-05-07T01:54:02.878Z,91
2019-05-07T01:55:03.851Z,93.1
2019-05-07T01:56:03.731Z,91.2
2019-05-07T01:57:03.838Z,90.3
2019-05-07T01:58:05.047Z,89.6
2019-05-07T01:59:02.801Z,89.6
2019-05-07T02:00:03.313Z,89.3
2019-05-07T02:01:03.537Z,90.3
2019-05-07T02:02:03.231Z,91.2
2019-05-07T02:03:03.795Z,90.3
2019-05-07T02:04:03.609Z,90.7
2019-05-07T02:05:03.968Z,90.3
2019-05-07T02:06:03.594Z,91.2
2019-05-07T02:07:03.351Z,91
2019-05-07T02:08:03.775Z,91.9
2019-05-07T02:09:03.598Z,93.1
2019-05-07T02:10:03.341Z,92.8
2019-05-07T02:11:03.246Z,92.8
2019-05-07T02:12:03.348Z,92.4
2019-05-07T02:13:03.491Z,91.9
2019-05-07T02:14:03.163Z,91.7
2019-05-07T02:15:03.182Z,93.5
2019-05-07T02:16:04.484Z,92.6
2019-05-07T02:17:03.386Z,93.8
2019-05-07T02:18:02.762Z,94
2019-05-07T02:19:03.062Z,94.5
2019-05-07T02:20:03.134Z,96.6
2019-05-07T02:21:03.523Z,97
2019-05-07T02:22:03.266Z,96.6
2019-05-07T02:23:03.213Z,98.2
2019-05-07T02:24:03.632Z,98.2
2019-05-07T02:25:03.906Z,97.3
2019-05-07T02:26:03.525Z,99.1
2019-05-07T02:27:03.874Z,98.2
2019-05-07T02:28:03.682Z,98.7
2019-05-07T02:29:03.522Z,99.1
2019-05-07T02:30:04.997Z,98
2019-05-07T02:31:04.478Z,97.7
2019-05-07T02:32:05.258Z,97.3
2019-05-07T02:33:04.229Z,96.1
2019-05-07T02:34:03.643Z,96.3
2019-05-07T02:35:04.775Z,95.9
2019-05-07T02:36:03.724Z,95.9
2019-05-07T02:37:04.516Z,96.1
2019-05-07T02:38:03.628Z,97.5
2019-05-07T02:39:04.253Z,96.3
2019-05-07T02:40:04.849Z,96.6
2019-05-07T02:41:03.433Z,95.9
2019-05-07T02:42:04.038Z,96.1
2019-05-07T02:43:03.390Z,98.7
2019-05-07T02:44:04.665Z,97
2019-05-07T02:45:04.949Z,99.6
2019-05-07T02:46:36.621Z,99.1
2019-05-07T02:48:03.867Z,100.5
2019-05-07T02:49:03.702Z,98.4
2019-05-07T02:50:03.637Z,98.9
2019-05-07T02:51:04.555Z,100.3
2019-05-07T02:52:04.444Z,98
2019-05-07T02:53:04.641Z,100.5
2019-05-07T02:54:04.014Z,98.9
2019-05-07T02:55:04.563Z,101
2019-05-07T02:56:03.985Z,98.4
2019-05-07T02:57:03.713Z,100.8
2019-05-07T02:58:04.178Z,98.7
2019-05-07T02:59:04.578Z,100.3
2019-05-07T03:00:05.257Z,99.6
2019-05-07T03:01:05.527Z,99.1
2019-05-07T03:02:04.011Z,99.6
2019-05-07T03:03:04.947Z,98.7
2019-05-07T03:04:04.057Z,97.3
2019-05-07T03:05:05.834Z,98.9
2019-05-07T03:06:03.582Z,96.6
2019-05-07T03:07:04.314Z,96.3
2019-05-07T03:08:03.875Z,97
2019-05-07T03:09:03.660Z,95.9
2019-05-07T03:10:04.116Z,95.9
2019-05-07T03:11:03.975Z,95.6
2019-05-07T03:12:04.521Z,97.5
2019-05-07T03:13:03.675Z,96.8
2019-05-07T03:14:03.636Z,99.8
2019-05-07T03:15:05.082Z,100.5
2019-05-07T03:16:04.223Z,99.8
2019-05-07T03:17:03.516Z,101.2
2019-05-07T03:18:03.965Z,100.1
2019-05-07T03:19:04.570Z,97.3
2019-05-07T03:20:03.739Z,99.4
2019-05-07T03:21:03.894Z,96.6
2019-05-07T03:22:04.261Z,96.3
2019-05-07T03:23:03.714Z,97.3
2019-05-07T03:24:04.123Z,96.1
2019-05-07T03:25:03.920Z,96.3
2019-05-07T03:26:04.494Z,95.4
2019-05-07T03:27:03.934Z,95.4
2019-05-07T03:28:04.724Z,94
2019-05-07T03:29:04.289Z,96.1
2019-05-07T03:30:04.969Z,94.9
2019-05-07T03:31:06.820Z,96.8
2019-05-07T03:32:06.741Z,97.3
2019-05-07T03:33:08.173Z,97.7
2019-05-07T03:34:07.889Z,99.1
2019-05-07T03:35:08.350Z,97.7
2019-05-07T03:36:08.384Z,100.8
2019-05-07T03:37:07.033Z,99.1
2019-05-07T03:38:04.055Z,99.6
2019-05-07T03:39:03.749Z,99.8
2019-05-07T03:40:04.611Z,99.1
2019-05-07T03:41:04.228Z,97.5
2019-05-07T03:42:03.859Z,97
2019-05-07T03:43:06.806Z,97
2019-05-07T03:44:04.005Z,97.3
2019-05-07T03:45:04.247Z,97
2019-05-07T03:46:04.026Z,96.1
2019-05-07T03:47:06.722Z,97.3
2019-05-07T03:48:04.014Z,97.7
2019-05-07T03:49:04.345Z,96.8
2019-05-07T03:50:03.899Z,95.4
2019-05-07T03:51:04.148Z,97.3
2019-05-07T03:52:04.789Z,95.2
2019-05-07T03:53:03.772Z,95.9
2019-05-07T03:54:03.418Z,97
2019-05-07T03:55:04.246Z,97.3
2019-05-07T03:56:04.845Z,95.6
2019-05-07T03:57:16.290Z,97.3
2019-05-07T03:58:03.535Z,96.3
2019-05-07T03:59:03.899Z,97
2019-05-07T04:00:04.829Z,98.2
2019-05-07T04:01:05.009Z,97.7
2019-05-07T04:02:03.805Z,97.5
2019-05-07T04:03:04.056Z,98
2019-05-07T04:04:03.964Z,97.5
2019-05-07T04:05:04.819Z,97.5
2019-05-07T04:06:04.519Z,98.4
2019-05-07T04:07:03.995Z,97
2019-05-07T04:08:03.864Z,99.8
2019-05-07T04:09:03.775Z,98.4
2019-05-07T04:10:05.055Z,99.6
2019-05-07T04:11:04.459Z,101.2
2019-05-07T04:12:04.481Z,99.8
2019-05-07T04:13:04.958Z,99.1
2019-05-07T04:14:03.395Z,99.6
2019-05-07T04:15:04.050Z,98.7
2019-05-07T04:16:04.797Z,100.8
2019-05-07T04:17:27.461Z,99.4
2019-05-07T04:19:04.277Z,99.8
2019-05-07T04:20:04.987Z,101.7
2019-05-07T04:21:04.521Z,101
2019-05-07T04:22:04.726Z,101.5
2019-05-07T04:23:04.704Z,103.3
2019-05-07T04:24:03.878Z,100.3
2019-05-07T04:25:04.956Z,101.7
2019-05-07T04:26:04.921Z,102.6
2019-05-07T04:27:04.115Z,102.9
2019-05-07T04:28:04.175Z,103.6
2019-05-07T04:29:06.698Z,103.1
2019-05-07T04:30:04.212Z,101.9
2019-05-07T04:31:03.867Z,103.3
2019-05-07T04:32:03.609Z,102.9
2019-05-07T04:33:03.904Z,102.4
2019-05-07T04:34:04.114Z,101.2
2019-05-07T04:35:04.650Z,98.9
2019-05-07T04:36:03.625Z,100.5
2019-05-07T04:37:03.570Z,99.8
2019-05-07T04:38:07.669Z,100.5
2019-05-07T04:39:03.712Z,99.8
2019-05-07T04:40:03.785Z,100.8
2019-05-07T04:41:04.226Z,100.3
2019-05-07T04:42:03.865Z,100.1
2019-05-07T04:43:03.313Z,102.4
2019-05-07T04:44:04.193Z,101.9
2019-05-07T04:45:04.800Z,102.6
2019-05-07T04:46:03.823Z,101.2
2019-05-07T04:47:04.663Z,102.4
2019-05-07T04:48:03.597Z,103.8
2019-05-07T04:49:04.477Z,103.8
2019-05-07T04:50:04.244Z,102.9
2019-05-07T04:51:03.924Z,103.1
2019-05-07T04:52:04.484Z,101.7
2019-05-07T04:53:03.356Z,100.3
2019-05-07T04:54:04.138Z,101.2
2019-05-07T04:55:04.828Z,100.1
2019-05-07T04:56:03.902Z,99.1
2019-05-07T04:57:04.170Z,99.6
2019-05-07T04:58:09.548Z,97
2019-05-07T04:59:04.076Z,98.4
2019-05-07T05:00:04.099Z,98.7
2019-05-07T05:01:03.707Z,99.4
2019-05-07T05:02:04.489Z,99.4
2019-05-07T05:03:03.693Z,100.1
2019-05-07T05:04:35.223Z,100.8
2019-05-07T05:06:03.462Z,101.2
2019-05-07T05:07:03.249Z,100.5
2019-05-07T05:08:04.198Z,101
2019-05-07T05:09:03.576Z,99.6
2019-05-07T05:10:03.621Z,98.9
2019-05-07T05:11:03.872Z,101.5
2019-05-07T05:12:03.232Z,98.9
2019-05-07T05:13:03.661Z,99.4
2019-05-07T05:14:08.359Z,100.1
2019-05-07T05:15:03.490Z,99.1
2019-05-07T05:16:03.121Z,98.9
2019-05-07T05:17:03.030Z,97.3
2019-05-07T05:18:03.038Z,97
2019-05-07T05:19:02.856Z,98
2019-05-07T05:20:03.934Z,98.2
2019-05-07T05:21:03.867Z,98.4
2019-05-07T05:22:02.983Z,98.4
2019-05-07T05:23:02.989Z,100.1
2019-05-07T05:24:03.823Z,98.2
2019-05-07T05:25:03.004Z,98
2019-05-07T05:26:03.646Z,98.7
2019-05-07T05:27:03.590Z,100.3
2019-05-07T05:28:03.787Z,101.9
2019-05-07T05:29:03.395Z,99.6
2019-05-07T05:30:03.822Z,102.6
2019-05-07T05:31:03.690Z,101.5
2019-05-07T05:32:03.476Z,102.9
2019-05-07T05:33:04.645Z,103.6
2019-05-07T05:34:03.460Z,103.1
2019-05-07T05:35:03.584Z,100.8
2019-05-07T05:36:03.424Z,102.2
2019-05-07T05:37:03.379Z,102.2
2019-05-07T05:38:03.359Z,103.1
2019-05-07T05:39:03.264Z,102.4
2019-05-07T05:40:09.209Z,102.9
2019-05-07T05:41:03.274Z,103.3
2019-05-07T05:42:03.379Z,101.2
2019-05-07T05:43:03.316Z,101.5
2019-05-07T05:44:03.125Z,99.8
2019-05-07T05:45:03.094Z,100.1
2019-05-07T05:46:03.095Z,97.5
2019-05-07T05:47:03.215Z,98.7
2019-05-07T05:48:08.953Z,98.4
2019-05-07T05:49:02.937Z,98.9
2019-05-07T05:50:02.835Z,97.5
2019-05-07T05:51:02.980Z,98.2
2019-05-07T05:52:03.995Z,98.4
2019-05-07T05:53:03.678Z,98.2
2019-05-07T05:54:02.856Z,98.9
2019-05-07T05:55:03.630Z,98.2
2019-05-07T05:56:03.555Z,99.6
2019-05-07T05:57:03.731Z,100.5
2019-05-07T05:58:03.704Z,98.9
2019-05-07T05:59:03.514Z,99.8
2019-05-07T06:00:03.611Z,99.6
2019-05-07T06:01:03.504Z,98.2
2019-05-07T06:02:06.942Z,99.4
2019-05-07T06:03:03.398Z,98.7
2019-05-07T06:04:03.599Z,101
2019-05-07T06:05:03.396Z,101
2019-05-07T06:06:03.466Z,100.1
2019-05-07T06:07:15.032Z,100.3
2019-05-07T06:08:04.018Z,101.5
2019-05-07T06:09:03.318Z,101.9
2019-05-07T06:10:03.421Z,100.8
2019-05-07T06:11:03.250Z,102.2
2019-05-07T06:12:03.124Z,100.3
2019-05-07T06:13:03.176Z,101
2019-05-07T06:14:03.127Z,100.3
2019-05-07T06:15:03.233Z,102.4
2019-05-07T06:16:03.364Z,99.6
2019-05-07T06:17:03.344Z,101.7
2019-05-07T06:18:24.076Z,101.9
2019-05-07T06:20:03.348Z,100.5
2019-05-07T06:21:03.241Z,101.2
2019-05-07T06:22:02.946Z,100.3
2019-05-07T06:23:03.220Z,99.4
2019-05-07T06:24:02.915Z,100.1
2019-05-07T06:25:03.819Z,98.4
2019-05-07T06:26:05.647Z,98.2
2019-05-07T06:27:03.925Z,98.7
2019-05-07T06:28:03.881Z,96.3
2019-05-07T06:29:03.711Z,94.7
2019-05-07T06:30:05.352Z,94.9
2019-05-07T06:31:03.783Z,92.6
2019-05-07T06:32:03.430Z,94.5
2019-05-07T06:33:03.497Z,94.2
2019-05-07T06:34:03.430Z,94.2
2019-05-07T06:35:03.451Z,93.3
2019-05-07T06:36:03.318Z,94.5
2019-05-07T06:37:03.566Z,94.2
2019-05-07T06:38:03.682Z,93.5
2019-05-07T06:39:03.369Z,95.2
2019-05-07T06:40:03.376Z,95.2
2019-05-07T06:41:03.467Z,94.7
2019-05-07T06:42:03.042Z,98.2
2019-05-07T06:43:03.431Z,97.3
2019-05-07T06:44:03.296Z,100.3
2019-05-07T06:45:03.441Z,100.5
2019-05-07T06:46:02.946Z,99.8
2019-05-07T06:47:02.764Z,99.4
2019-05-07T06:48:03.287Z,100.3
2019-05-07T06:49:03.129Z,100.1
2019-05-07T06:50:03.665Z,99.8
2019-05-07T06:51:03.417Z,100.1
2019-05-07T06:52:03.295Z,99.6
2019-05-07T06:53:03.880Z,100.5
2019-05-07T06:54:03.186Z,101.5
2019-05-07T06:55:03.604Z,99.4
2019-05-07T06:56:03.853Z,100.8
2019-05-07T06:57:03.798Z,99.8
2019-05-07T06:58:02.950Z,98.9
2019-05-07T06:59:03.856Z,99.1
2019-05-07T07:00:03.690Z,100.8
2019-05-07T07:01:03.821Z,98.7
2019-05-07T07:02:06.001Z,100.5
2019-05-07T07:03:03.682Z,98.9
2019-05-07T07:04:03.361Z,99.4
2019-05-07T07:05:03.810Z,97.5
2019-05-07T07:06:03.622Z,96.8
2019-05-07T07:07:03.852Z,97.3
2019-05-07T07:08:03.479Z,95.6
2019-05-07T07:09:03.694Z,98.2
2019-05-07T07:10:03.504Z,96.8
2019-05-07T07:11:03.352Z,96.6
2019-05-07T07:12:03.467Z,96.6
2019-05-07T07:13:03.393Z,95.9
2019-05-07T07:14:03.277Z,95.2
2019-05-07T07:15:03.262Z,95.4
2019-05-07T07:16:03.577Z,93.5
2019-05-07T07:17:03.379Z,94.5
2019-05-07T07:18:03.495Z,94.9
2019-05-07T07:19:03.636Z,95.2
2019-05-07T07:20:03.233Z,94.5
2019-05-07T07:21:03.881Z,94.9
2019-05-07T07:22:03.077Z,94.2
2019-05-07T07:23:03.069Z,94.5
2019-05-07T07:24:03.900Z,93.3
2019-05-07T07:25:06.973Z,94.2
2019-05-07T07:26:03.808Z,94.5
2019-05-07T07:27:02.941Z,93.8
2019-05-07T07:28:03.932Z,93.8
2019-05-07T07:29:02.978Z,94.5
2019-05-07T07:30:03.654Z,94.9
2019-05-07T07:31:03.696Z,94.9
2019-05-07T07:32:03.854Z,96.3
2019-05-07T07:33:03.091Z,94.7
2019-05-07T07:34:03.540Z,94.5
2019-05-07T07:35:02.875Z,94.7
2019-05-07T07:36:02.931Z,96.1
2019-05-07T07:37:15.990Z,97.3
2019-05-07T07:39:03.738Z,96.3
2019-05-07T07:40:04.030Z,95.6
2019-05-07T07:41:05.707Z,94
2019-05-07T07:42:03.540Z,94.7
2019-05-07T07:43:07.568Z,94
2019-05-07T07:44:03.637Z,93.1
2019-05-07T07:45:03.377Z,92.8
2019-05-07T07:46:03.527Z,92.6
2019-05-07T07:47:03.337Z,91.7
2019-05-07T07:48:03.725Z,92.4
2019-05-07T07:49:15.531Z,91.4
2019-05-07T07:51:03.884Z,91.2
2019-05-07T07:52:03.578Z,90.3
2019-05-07T07:53:03.202Z,91
2019-05-07T07:54:03.402Z,90.5
2019-05-07T07:55:03.110Z,89.1
2019-05-07T07:56:03.452Z,89.8
2019-05-07T07:57:03.218Z,88.6
2019-05-07T07:58:03.189Z,89.1
2019-05-07T07:59:03.229Z,88.9
2019-05-07T08:00:03.066Z,89.6
2019-05-07T08:01:03.281Z,87.7
2019-05-07T08:02:03.026Z,89.1
2019-05-07T08:03:03.389Z,88.4
2019-05-07T08:04:03.166Z,90
2019-05-07T08:05:03.069Z,87.9
2019-05-07T08:06:02.828Z,90
2019-05-07T08:07:03.511Z,90.7
2019-05-07T08:08:03.047Z,88.4
2019-05-07T08:09:03.664Z,88.2
2019-05-07T08:10:03.897Z,89.1
2019-05-07T08:11:02.932Z,87.2
2019-05-07T08:12:04.814Z,88.9
2019-05-07T08:13:03.550Z,89.6
2019-05-07T08:14:02.891Z,90.5
2019-05-07T08:15:25.078Z,89.6
2019-05-07T08:17:03.680Z,89.8
2019-05-07T08:18:03.746Z,88.9
2019-05-07T08:19:25.333Z,89.3
2019-05-07T08:21:03.497Z,88.6
2019-05-07T08:22:03.627Z,88.4
2019-05-07T08:23:03.290Z,88.4
2019-05-07T08:24:03.225Z,89.6
2019-05-07T08:25:03.557Z,89.3
2019-05-07T08:26:03.081Z,91.7
2019-05-07T08:27:03.300Z,89.8
2019-05-07T08:28:03.300Z,92.1
2019-05-07T08:29:03.428Z,91.9
2019-05-07T08:30:03.340Z,91.4
2019-05-07T08:31:03.251Z,90.3
2019-05-07T08:32:02.979Z,93.5
2019-05-07T08:33:03.024Z,92.6
2019-05-07T08:34:03.281Z,92.6
2019-05-07T08:35:03.028Z,93.8
2019-05-07T08:36:03.045Z,92.4
2019-05-07T08:37:02.906Z,92.8
2019-05-07T08:38:03.049Z,91.4
2019-05-07T08:39:03.849Z,93.3
2019-05-07T08:40:03.447Z,93.8
2019-05-07T08:41:03.875Z,94.7
2019-05-07T08:42:02.992Z,94.2
2019-05-07T08:43:03.896Z,94
2019-05-07T08:44:15.915Z,96.6
2019-05-07T08:45:04.055Z,94.7
2019-05-07T08:46:03.448Z,96.6
2019-05-07T08:47:03.556Z,94.9
2019-05-07T08:48:03.635Z,96.6
2019-05-07T08:49:03.613Z,96.3
2019-05-07T08:50:03.690Z,98.9
2019-05-07T08:51:03.432Z,98.2
2019-05-07T08:52:04.204Z,97.5
2019-05-07T08:53:03.536Z,98.2
2019-05-07T08:54:03.473Z,97.7
2019-05-07T08:55:03.411Z,97.7
2019-05-07T08:56:03.559Z,99.1
2019-05-07T08:57:02.747Z,99.6
2019-05-07T08:58:03.417Z,98.9
2019-05-07T08:59:03.087Z,100.5
2019-05-07T09:00:05.064Z,99.6
2019-05-07T09:01:03.405Z,98.7
2019-05-07T09:02:03.425Z,99.1
2019-05-07T09:03:02.732Z,98.9
2019-05-07T09:04:02.754Z,98.7
2019-05-07T09:05:03.958Z,98.7
2019-05-07T09:06:03.097Z,97.7
2019-05-07T09:07:03.916Z,98.7
2019-05-07T09:08:03.818Z,96.8
2019-05-07T09:09:03.859Z,95.9
2019-05-07T09:10:03.495Z,97
2019-05-07T09:11:03.553Z,95.4
2019-05-07T09:12:03.542Z,97.3
2019-05-07T09:13:03.611Z,97.7
2019-05-07T09:14:03.431Z,98.4
2019-05-07T09:15:03.629Z,97
2019-05-07T09:16:03.447Z,97.3
2019-05-07T09:17:03.442Z,98.4
2019-05-07T09:18:03.211Z,98
2019-05-07T09:19:03.155Z,99.4
2019-05-07T09:20:03.426Z,98.2
2019-05-07T09:21:02.913Z,99.1
2019-05-07T09:22:03.261Z,98.9
2019-05-07T09:23:02.952Z,98.4
2019-05-07T09:24:03.006Z,98.2
2019-05-07T09:25:03.427Z,97
2019-05-07T09:26:03.015Z,96.3
2019-05-07T09:27:03.072Z,94.7
2019-05-07T09:28:03.922Z,94.9
2019-05-07T09:29:03.640Z,96.6
2019-05-07T09:30:03.914Z,94
2019-05-07T09:31:03.692Z,94.9
2019-05-07T09:32:03.792Z,95.4
2019-05-07T09:33:03.717Z,92.1
2019-05-07T09:34:03.334Z,92.6
2019-05-07T09:35:03.333Z,92.6
2019-05-07T09:36:03.424Z,92.8
2019-05-07T09:37:03.392Z,92.8
2019-05-07T09:38:03.489Z,92.6
2019-05-07T09:39:03.395Z,92.1
2019-05-07T09:40:03.447Z,92.1
2019-05-07T09:41:03.427Z,90.7
2019-05-07T09:42:02.984Z,89.3
2019-05-07T09:43:03.247Z,89.1
2019-05-07T09:44:03.441Z,89.8
2019-05-07T09:45:03.318Z,87.9
2019-05-07T09:46:03.042Z,89.1
2019-05-07T09:47:03.081Z,88.6
2019-05-07T09:48:03.304Z,90.3
2019-05-07T09:49:03.414Z,89.1
2019-05-07T09:50:09.229Z,90.3
2019-05-07T09:51:03.739Z,89.8
2019-05-07T09:52:06.294Z,88.2
2019-05-07T09:53:03.708Z,92.1
2019-05-07T09:54:03.797Z,93.1
2019-05-07T09:55:17.776Z,92.6
2019-05-07T09:57:03.520Z,94.5
2019-05-07T09:58:03.719Z,93.3
2019-05-07T09:59:03.540Z,93.5
2019-05-07T10:00:03.296Z,93.3
2019-05-07T10:01:03.456Z,92.1
2019-05-07T10:02:03.162Z,93.3
2019-05-07T10:03:03.583Z,92.6
2019-05-07T10:04:03.205Z,92.1
2019-05-07T10:05:03.388Z,93.5
2019-05-07T10:06:03.064Z,91.7
2019-05-07T10:07:03.258Z,93.5
2019-05-07T10:08:02.825Z,92.8
2019-05-07T10:09:03.364Z,94
2019-05-07T10:10:03.582Z,92.6
2019-05-07T10:11:03.251Z,93.1
2019-05-07T10:12:03.913Z,91.2
2019-05-07T10:13:03.803Z,90.7
2019-05-07T10:14:03.740Z,90.7
2019-05-07T10:15:03.887Z,89.6
2019-05-07T10:16:08.016Z,90.5
2019-05-07T10:17:03.646Z,91.2
2019-05-07T10:18:03.495Z,90.7
2019-05-07T10:19:03.630Z,91
2019-05-07T10:20:22.940Z,90.3
2019-05-07T10:22:03.590Z,91.7
2019-05-07T10:23:03.306Z,92.4
2019-05-07T10:24:03.433Z,91.4
2019-05-07T10:25:03.436Z,93.1
2019-05-07T10:26:03.480Z,94
2019-05-07T10:27:03.414Z,93.8
2019-05-07T10:28:02.992Z,94.2
2019-05-07T10:29:03.254Z,95.2
2019-05-07T10:30:02.977Z,94.5
2019-05-07T10:31:03.091Z,94.2
2019-05-07T10:32:02.879Z,94.7
2019-05-07T10:33:02.791Z,93.5
2019-05-07T10:34:03.268Z,93.3
2019-05-07T10:35:03.548Z,94.2
2019-05-07T10:36:03.069Z,91.4
2019-05-07T10:37:03.104Z,91.9
2019-05-07T10:38:02.906Z,91.7
2019-05-07T10:39:03.048Z,90.5
2019-05-07T10:40:03.427Z,93.1
2019-05-07T10:41:03.686Z,92.8
2019-05-07T10:42:03.606Z,93.5
2019-05-07T10:43:03.614Z,92.1
2019-05-07T10:44:03.721Z,93.1
2019-05-07T10:45:03.823Z,91.9
2019-05-07T10:46:03.665Z,92.8
2019-05-07T10:47:03.398Z,92.4
2019-05-07T10:48:03.623Z,94.7
2019-05-07T10:49:03.084Z,93.3
2019-05-07T10:50:03.533Z,94.5
2019-05-07T10:51:03.187Z,94.2
2019-05-07T10:52:03.497Z,94.7
2019-05-07T10:53:03.403Z,94
2019-05-07T10:54:03.538Z,95.2
2019-05-07T10:55:03.598Z,92.6
2019-05-07T10:56:03.299Z,92.4
2019-05-07T10:57:03.422Z,91.7
2019-05-07T10:58:03.371Z,93.8
2019-05-07T10:59:03.256Z,91.7
2019-05-07T11:00:03.495Z,93.1
2019-05-07T11:01:03.284Z,92.4
2019-05-07T11:02:03.267Z,92.8
2019-05-07T11:03:02.950Z,92.6
2019-05-07T11:04:03.167Z,92.8
2019-05-07T11:05:02.925Z,93.8
2019-05-07T11:06:02.830Z,92.6
2019-05-07T11:07:03.025Z,92.6
2019-05-07T11:08:03.758Z,92.8
2019-05-07T11:09:03.844Z,93.8
2019-05-07T11:10:04.023Z,92.4
2019-05-07T11:11:03.415Z,94.9
2019-05-07T11:12:03.576Z,94.9
2019-05-07T11:13:03.772Z,96.1
2019-05-07T11:14:03.220Z,97.3
2019-05-07T11:15:03.408Z,97.3
2019-05-07T11:16:03.652Z,98
2019-05-07T11:17:03.604Z,98.2
2019-05-07T11:18:03.574Z,98
2019-05-07T11:19:03.292Z,98.7
2019-05-07T11:20:03.315Z,99.4
2019-05-07T11:21:03.375Z,98.4
2019-05-07T11:22:03.871Z,99.4
2019-05-07T11:23:03.109Z,98.9
2019-05-07T11:24:03.761Z,98.4
2019-05-07T11:25:03.331Z,99.4
2019-05-07T11:26:03.036Z,98.4
2019-05-07T11:27:03.071Z,97.5
2019-05-07T11:28:03.144Z,97.7
2019-05-07T11:29:03.073Z,97.5
2019-05-07T11:30:03.993Z,97.5
2019-05-07T11:31:03.678Z,97.7
2019-05-07T11:32:03.712Z,97.5
2019-05-07T11:33:03.724Z,98.2
2019-05-07T11:34:03.854Z,98.4
2019-05-07T11:35:03.594Z,100.1
2019-05-07T11:36:03.516Z,100.5
2019-05-07T11:37:03.659Z,100.1
2019-05-07T11:38:25.204Z,101.7
2019-05-07T11:40:03.798Z,102.2
2019-05-07T11:41:03.497Z,103.3
2019-05-07T11:42:03.448Z,103.1
2019-05-07T11:43:03.046Z,102.9
2019-05-07T11:44:03.340Z,104.5
2019-05-07T11:45:03.402Z,103.3
2019-05-07T11:46:03.162Z,103.8
2019-05-07T11:47:03.800Z,103.6
2019-05-07T11:48:04.618Z,103.1
2019-05-07T11:49:03.128Z,102.6
2019-05-07T11:50:03.499Z,101
2019-05-07T11:51:04.681Z,102.6
2019-05-07T11:52:03.211Z,100.8
2019-05-07T11:53:03.172Z,101.9
2019-05-07T11:54:02.971Z,100.8
2019-05-07T11:55:03.389Z,101.7
2019-05-07T11:56:03.891Z,100.8
2019-05-07T11:57:03.207Z,101.5
2019-05-07T11:58:03.664Z,103.1
2019-05-07T11:59:03.734Z,101.7
2019-05-07T12:00:03.138Z,101.7
2019-05-07T12:01:04.393Z,101.9
2019-05-07T12:02:03.925Z,103.3
2019-05-07T12:03:03.692Z,101.2
2019-05-07T12:04:03.797Z,103.8
2019-05-07T12:05:03.502Z,103.1
2019-05-07T12:06:03.499Z,103.1
2019-05-07T12:07:03.706Z,104.5
2019-05-07T12:08:03.841Z,103.3
2019-05-07T12:09:03.664Z,103.8
2019-05-07T12:10:05.267Z,103.8
2019-05-07T12:11:03.374Z,103.1
2019-05-07T12:12:03.520Z,102.2
2019-05-07T12:13:03.498Z,102.2
2019-05-07T12:14:03.055Z,101
2019-05-07T12:15:03.601Z,100.5
2019-05-07T12:16:03.418Z,100.3
2019-05-07T12:17:03.236Z,99.6
2019-05-07T12:18:03.497Z,98.9
2019-05-07T12:19:03.128Z,98.4
2019-05-07T12:20:03.174Z,97.7
2019-05-07T12:21:24.463Z,98.4
2019-05-07T12:23:03.267Z,97
2019-05-07T12:24:02.875Z,98
2019-05-07T12:25:03.778Z,97.7
2019-05-07T12:26:03.256Z,97
2019-05-07T12:27:03.605Z,98.2
2019-05-07T12:28:02.999Z,98.7
2019-05-07T12:29:03.768Z,98.4
2019-05-07T12:30:03.745Z,100.1
2019-05-07T12:31:03.770Z,100.3
2019-05-07T12:32:03.059Z,99.1
2019-05-07T12:33:03.533Z,99.4
2019-05-07T12:34:03.626Z,98.2
2019-05-07T12:35:03.677Z,99.1
2019-05-07T12:36:03.628Z,98.7
2019-05-07T12:37:03.319Z,98
2019-05-07T12:38:03.591Z,98
2019-05-07T12:39:03.360Z,96.6
2019-05-07T12:40:03.339Z,97
2019-05-07T12:41:02.943Z,97.5
2019-05-07T12:42:03.159Z,97.7
2019-05-07T12:43:03.533Z,97
2019-05-07T12:44:03.026Z,96.8
2019-05-07T12:45:03.113Z,95.4
2019-05-07T12:46:03.076Z,96.1
2019-05-07T12:47:03.178Z,97
2019-05-07T12:48:03.761Z,96.6
2019-05-07T12:49:03.659Z,97.7
2019-05-07T12:50:03.324Z,96.6
2019-05-07T12:51:03.457Z,97.5
2019-05-07T12:52:03.051Z,95.6
2019-05-07T12:53:03.699Z,97.5
2019-05-07T12:54:03.199Z,96.1
2019-05-07T12:55:03.563Z,96.6
2019-05-07T12:56:03.879Z,94.9
2019-05-07T12:57:03.006Z,95.4
2019-05-07T12:58:03.104Z,95.9
2019-05-07T12:59:03.041Z,94.7
2019-05-07T13:00:03.976Z,94.7
2019-05-07T13:01:03.898Z,94.2
2019-05-07T13:02:44.389Z,95.6
2019-05-07T13:04:03.663Z,94.7
2019-05-07T13:05:03.614Z,95.9
2019-05-07T13:06:03.677Z,95.2
2019-05-07T13:07:03.410Z,96.6
2019-05-07T13:08:03.680Z,98.4
2019-05-07T13:09:03.332Z,98.4
2019-05-07T13:10:03.807Z,98.9
2019-05-07T13:11:03.690Z,100.1
2019-05-07T13:12:03.424Z,98.9
2019-05-07T13:13:03.472Z,101
2019-05-07T13:14:03.575Z,98.4
2019-05-07T13:15:03.360Z,99.6
2019-05-07T13:16:03.388Z,99.1
2019-05-07T13:17:03.371Z,99.4
2019-05-07T13:18:03.120Z,99.4
2019-05-07T13:19:02.974Z,99.1
2019-05-07T13:20:03.529Z,100.5
2019-05-07T13:21:03.175Z,101.2
2019-05-07T13:22:03.897Z,99.8
2019-05-07T13:23:03.233Z,99.4
2019-05-07T13:24:03.062Z,99.8
2019-05-07T13:25:03.187Z,99.4
2019-05-07T13:26:02.963Z,98.7
2019-05-07T13:27:03.556Z,98.2
2019-05-07T13:28:03.044Z,98.2
2019-05-07T13:29:03.847Z,95.9
2019-05-07T13:30:03.740Z,97
2019-05-07T13:31:03.016Z,96.8
2019-05-07T13:32:03.758Z,97